地図

経路データ

SID SEASON NUMBER BASIN SUBBASIN NAME ISO_TIME NATURE LAT LON WMO_WIND WMO_PRES WMO_AGENCY TRACK_TYPE DIST2LAND LANDFALL IFLAG USA_AGENCY USA_ATCF_ID USA_LAT USA_LON USA_RECORD USA_STATUS USA_WIND USA_PRES USA_SSHS USA_R34_NE USA_R34_SE USA_R34_SW USA_R34_NW USA_R50_NE USA_R50_SE USA_R50_SW USA_R50_NW USA_R64_NE USA_R64_SE USA_R64_SW USA_R64_NW USA_POCI USA_ROCI USA_RMW USA_EYE TOKYO_LAT TOKYO_LON TOKYO_GRADE TOKYO_WIND TOKYO_PRES TOKYO_R50_DIR TOKYO_R50_LONG TOKYO_R50_SHORT TOKYO_R30_DIR TOKYO_R30_LONG TOKYO_R30_SHORT TOKYO_LAND CMA_LAT CMA_LON CMA_CAT CMA_WIND CMA_PRES HKO_LAT HKO_LON HKO_CAT HKO_WIND HKO_PRES NEWDELHI_LAT NEWDELHI_LON NEWDELHI_GRADE NEWDELHI_WIND NEWDELHI_PRES NEWDELHI_CI NEWDELHI_DP NEWDELHI_POCI REUNION_LAT REUNION_LON REUNION_TYPE REUNION_WIND REUNION_PRES REUNION_TNUM REUNION_CI REUNION_RMW REUNION_R34_NE REUNION_R34_SE REUNION_R34_SW REUNION_R34_NW REUNION_R50_NE REUNION_R50_SE REUNION_R50_SW REUNION_R50_NW REUNION_R64_NE REUNION_R64_SE REUNION_R64_SW REUNION_R64_NW BOM_LAT BOM_LON BOM_TYPE BOM_WIND BOM_PRES BOM_TNUM BOM_CI BOM_RMW BOM_R34_NE BOM_R34_SE BOM_R34_SW BOM_R34_NW BOM_R50_NE BOM_R50_SE BOM_R50_SW BOM_R50_NW BOM_R64_NE BOM_R64_SE BOM_R64_SW BOM_R64_NW BOM_ROCI BOM_POCI BOM_EYE BOM_POS_METHOD BOM_PRES_METHOD NADI_LAT NADI_LON NADI_CAT NADI_WIND NADI_PRES WELLINGTON_LAT WELLINGTON_LON WELLINGTON_WIND WELLINGTON_PRES DS824_LAT DS824_LON DS824_STAGE DS824_WIND DS824_PRES TD9636_LAT TD9636_LON TD9636_STAGE TD9636_WIND TD9636_PRES TD9635_LAT TD9635_LON TD9635_WIND TD9635_PRES TD9635_ROCI NEUMANN_LAT NEUMANN_LON NEUMANN_CLASS NEUMANN_WIND NEUMANN_PRES MLC_LAT MLC_LON MLC_CLASS MLC_WIND MLC_PRES USA_GUST BOM_GUST BOM_GUST_PER REUNION_GUST REUNION_GUST_PER USA_SEAHGT USA_SEARAD_NE USA_SEARAD_SE USA_SEARAD_SW USA_SEARAD_NW STORM_SPEED STORM_DIR
1965310N12086 1965 114 NI BB NOT_NAMED 1965-11-05 18:00:00 TS 12.1000 85.8000 main 610 598 O________O____ jtwc_io IO111965 12.1000 85.8000 -1 12.1000 85.8000 TC 2 327
1965310N12086 1965 114 NI BB NOT_NAMED 1965-11-05 21:00:00 TS 12.2000 85.7250 main 598 585 P________P____ IO111965 12.2000 85.7250 -1 12.2000 85.7250 TC 3 316
1965310N12086 1965 114 NI BB NOT_NAMED 1965-11-06 00:00:00 TS 12.3000 85.6000 main 585 562 O________O____ jtwc_io IO111965 12.3000 85.6000 -1 12.3000 85.6000 TC 25 4 301
1965310N12086 1965 114 NI BB NOT_NAMED 1965-11-06 03:00:00 TS 12.4000 85.3889 main 562 528 P________PO___ IO111965 12.4000 85.3875 -1 12.4000 85.3875 TC 25 12.4000 85.4000 1 5 292
1965310N12086 1965 114 NI BB NOT_NAMED 1965-11-06 06:00:00 TS 12.5013 85.0950 main 528 494 O________OP___ jtwc_io IO111965 12.5000 85.1000 -1 12.5000 85.1000 TC 25 12.5063 85.0751 1 6 288
1965310N12086 1965 114 NI BB NOT_NAMED 1965-11-06 09:00:00 TS 12.6027 84.7636 main 494 449 P________PP___ IO111965 12.6000 84.7725 -1 12.6000 84.7725 TC 25 12.6100 84.7401 1 7 286
1965310N12086 1965 114 NI BB NOT_NAMED 1965-11-06 12:00:00 TS 12.7029 84.3950 main 449 404 O________OP___ jtwc_io IO111965 12.7000 84.4000 -1 12.7000 84.4000 TC 25 12.7087 84.3850 1 8 285
1965310N12086 1965 114 NI BB NOT_NAMED 1965-11-06 15:00:00 TS 12.8050 84.0100 main 404 360 P________PO___ IO111965 12.8074 84.0150 -1 12.8074 84.0150 TC 25 12.8000 84.0000 1 8 284
1965310N12086 1965 114 NI BB NOT_NAMED 1965-11-06 18:00:00 TS 12.8936 83.5940 main 360 315 O________OP___ jtwc_io IO111965 12.9000 83.6000 -1 12.9000 83.6000 TC 25 12.8808 83.5819 1 9 280
1965310N12086 1965 114 NI BB NOT_NAMED 1965-11-06 21:00:00 TS 12.9585 83.1367 main 305 262 P________PP___ IO111965 12.9651 83.1275 -1 12.9651 83.1275 TC 25 12.9453 83.1551 1 9 277
1965310N12086 1965 114 NI BB NOT_NAMED 1965-11-07 00:00:00 TS 12.9957 82.7169 main 262 229 O________OP___ jtwc_io IO111965 13.0000 82.7000 -1 13.0000 82.7000 TC 25 12.9871 82.7507 1 7 274
1965310N12086 1965 114 NI BB NOT_NAMED 1965-11-07 03:00:00 TS 13.0099 82.4083 main 229 208 P________PO___ IO111965 13.0149 82.4125 -1 13.0149 82.4125 TC 25 13.0000 82.4000 1 5 270
1965310N12086 1965 114 NI BB NOT_NAMED 1965-11-07 06:00:00 TS 12.9942 82.1808 main 208 187 O________OP___ jtwc_io IO111965 13.0000 82.2000 -1 13.0000 82.2000 TC 25 12.9825 82.1424 1 4 263
1965310N12086 1965 114 NI BB NOT_NAMED 1965-11-07 09:00:00 TS 12.9557 81.9750 main 187 168 P________PP___ IO111965 12.9650 81.9925 -1 12.9650 81.9925 TC 25 12.9371 81.9399 1 4 255
1965310N12086 1965 114 NI BB NOT_NAMED 1965-11-07 12:00:00 TS 12.8911 81.7892 main 168 151 O________OP___ jtwc_io IO111965 12.9000 81.8000 -1 12.9000 81.8000 TC 25 12.8732 81.7675 1 4 247
1965310N12086 1965 114 NI BB NOT_NAMED 1965-11-07 15:00:00 TS 12.8000 81.6000 main 151 130 P________PO___ IO111965 12.8000 81.6000 -1 12.8000 81.6000 TC 25 12.8000 81.6000 1 4 246
1965310N12086 1965 114 NI BB NOT_NAMED 1965-11-07 18:00:00 TS 12.7162 81.3946 main 130 108 O________OP___ jtwc_io IO111965 12.7000 81.4000 -1 12.7000 81.4000 TC 25 12.7485 81.3838 1 4 251
1965310N12086 1965 114 NI BB NOT_NAMED 1965-11-07 21:00:00 TS 12.6625 81.1900 main 108 86 P________PP___ IO111965 12.6500 81.2000 -1 12.6500 81.2000 TC 25 12.6875 81.1701 1 4 254
1965310N12086 1965 114 NI BB NOT_NAMED 1965-11-08 00:00:00 TS 12.6026 80.9904 main 86 65 O________OP___ jtwc_io IO111965 12.6000 81.0000 -1 12.6000 81.0000 TC 25 12.6079 80.9713 1 4 250
1965310N12086 1965 114 NI BB NOT_NAMED 1965-11-08 03:00:00 TS 12.5150 80.7850 main 65 44 P________PO___ IO111965 12.5225 80.7775 -1 12.5225 80.7775 TC 25 12.5000 80.8000 1 4 239
1965310N12086 1965 114 NI BB NOT_NAMED 1965-11-08 06:00:00 TS 12.3805 80.6183 main 44 44 O________OP___ jtwc_io IO111965 12.4000 80.6000 -1 12.4000 80.6000 TC 25 12.3415 80.6550 1 4 217
1965310N12086 1965 114 NI BB NOT_NAMED 1965-11-08 09:00:00 TS 12.1908 80.5317 main 46 46 P________PP___ IO111965 12.2075 80.5275 -1 12.2075 80.5275 TC 25 12.1574 80.5399 1 4 198
1965310N12086 1965 114 NI BB NOT_NAMED 1965-11-08 12:00:00 TS 11.9899 80.4850 main 58 54 O________OP___ jtwc_io IO111965 12.0000 80.5000 -1 12.0000 80.5000 TC 25 11.9697 80.4550 1 4 196
1965310N12086 1965 114 NI BB NOT_NAMED 1965-11-08 15:00:00 TS 11.8233 80.4283 main 58 58 P________PO___ IO111965 11.8350 80.4425 -1 11.8350 80.4425 TC 25 11.8000 80.4000 1 3 196
1965310N12086 1965 114 NI BB NOT_NAMED 1965-11-08 18:00:00 TS 11.7104 80.4013 main 63 63 O________OP___ jtwc_io IO111965 11.7000 80.4000 -1 11.7000 80.4000 TC 25 11.7312 80.4041 1 2 0
1965310N12086 1965 114 NI BB NOT_NAMED 1965-11-08 21:00:00 TS 11.6250 80.4102 main 65 64 P________PP___ IO111965 11.6000 80.4000 -1 11.6000 80.4000 TC 30 11.6749 80.4305 1 2 0
1965310N12086 1965 114 NI BB NOT_NAMED 1965-11-09 00:00:00 TS 11.5270 80.4139 main 64 58 O________OP___ jtwc_io IO111965 11.5000 80.4000 -1 11.5000 80.4000 TC 35 11.5811 80.4417 1 2 184
1965310N12086 1965 114 NI BB NOT_NAMED 1965-11-09 03:00:00 TS 11.4016 80.3867 main 58 43 P________PO___ IO111965 11.4025 80.3801 -1 11.4025 80.3801 TC 30 11.4000 80.4000 2 4 198
1965310N12086 1965 114 NI BB NOT_NAMED 1965-11-09 06:00:00 TS 11.1582 80.2913 main 43 21 O________OP___ jtwc_io IO111965 11.2000 80.3000 -1 11.2000 80.3000 TC 25 11.0955 80.2781 2 7 203
1965310N12086 1965 114 NI BB NOT_NAMED 1965-11-09 09:00:00 TS 10.7562 80.1108 main 21 0 P________PP___ IO111965 10.8076 80.1273 -1 10.8076 80.1273 TC 25 10.6878 80.0889 2 10 204
1965310N12086 1965 114 NI BB NOT_NAMED 1965-11-09 12:00:00 TS 10.2556 79.8776 main 0 0 O________OP___ jtwc_io IO111965 10.3000 79.9000 -1 10.3000 79.9000 TC 25 10.2112 79.8553 2 12 205
1965310N12086 1965 114 NI BB NOT_NAMED 1965-11-09 15:00:00 NR 9.70000 79.6000 main 47 __________O___ IO111965 -1 TC 9.70000 79.6000 1 12 206

IBTrACS Databaseについて

本データベースは、米国NOAAが公開する1842年以降の世界の熱帯低気圧のベストトラックデータアーカイブInternational Best Track Archive for Climate Stewardship (IBTrACS)を、ウェブで閲覧しやすい形式に変換したものです。

最終更新日:2021-10-08